Time;durP1;ratioP1;P1;durP2;ratioP2;P2;SDS_P1;SDS_P2;PMS_P1;PMS_P2;Temp;Humidity;BMP_temperature;BMP_pressure;BME280_temperature;BME280_humidity;BME280_pressure;Samples;Min_cycle;Max_cycle;Signal;HPM_P1;HPM_P2
2021/08/14 00:01:21;;;;;;;3.47;2.50;;;19.80;99.90;;;;;;4158723;28;20038;-71
2021/08/14 00:03:22;;;;;;;4.45;2.50;;;19.70;99.90;;;;;;4156589;28;20069;-70
2021/08/14 00:05:23;;;;;;;4.93;2.60;;;19.70;99.90;;;;;;4159419;28;20112;-71
2021/08/14 00:07:23;;;;;;;6.30;3.00;;;19.70;99.90;;;;;;4156654;28;20087;-71
2021/08/14 00:09:24;;;;;;;3.95;2.50;;;19.70;99.90;;;;;;4160326;28;20128;-70
2021/08/14 00:11:25;;;;;;;6.18;2.55;;;19.60;99.90;;;;;;4158711;28;20036;-70
2021/08/14 00:13:25;;;;;;;5.47;2.60;;;19.60;99.90;;;;;;4157612;28;20053;-70
2021/08/14 00:15:26;;;;;;;5.00;3.10;;;19.50;99.90;;;;;;4157120;28;20040;-70
2021/08/14 00:17:27;;;;;;;4.85;3.03;;;19.50;99.90;;;;;;4162312;28;20036;-71
2021/08/14 00:19:28;;;;;;;5.20;3.17;;;19.50;99.90;;;;;;4164142;28;20029;-70
2021/08/14 00:21:30;;;;;;;5.93;2.90;;;19.50;99.90;;;;;;4160747;28;20045;-71
2021/08/14 00:23:31;;;;;;;5.20;2.90;;;19.50;99.90;;;;;;4165504;28;20061;-70
2021/08/14 00:25:31;;;;;;;4.07;2.67;;;19.50;99.90;;;;;;4168915;28;20362;-70
2021/08/14 00:27:32;;;;;;;6.45;3.03;;;19.50;99.90;;;;;;4165925;28;20481;-70
2021/08/14 00:29:33;;;;;;;6.25;2.58;;;19.50;99.90;;;;;;4168507;28;20110;-70
2021/08/14 00:31:33;;;;;;;8.07;3.20;;;19.50;99.90;;;;;;4164897;28;20037;-71
2021/08/14 00:33:34;;;;;;;6.85;3.33;;;19.50;99.90;;;;;;4164870;28;20034;-71
2021/08/14 00:35:37;;;;;;;8.73;3.28;;;19.50;99.90;;;;;;4170141;28;20056;-70
2021/08/14 00:37:38;;;;;;;5.05;3.35;;;19.40;99.90;;;;;;4155662;28;20055;-70
2021/08/14 00:39:39;;;;;;;7.50;3.20;;;19.40;99.90;;;;;;4155724;28;20104;-71
2021/08/14 00:41:40;;;;;;;6.18;2.58;;;19.40;99.90;;;;;;4160052;28;20025;-70
2021/08/14 00:43:41;;;;;;;5.28;2.85;;;19.40;99.90;;;;;;4160165;28;20030;-70
2021/08/14 00:45:42;;;;;;;9.95;3.40;;;19.40;99.90;;;;;;4158420;28;20382;-70
2021/08/14 00:47:43;;;;;;;5.60;3.03;;;19.40;99.90;;;;;;4157730;28;20598;-71
2021/08/14 00:49:44;;;;;;;4.22;2.97;;;19.30;99.90;;;;;;4149906;28;20041;-70
2021/08/14 00:51:44;;;;;;;4.35;2.60;;;19.30;99.90;;;;;;4153918;28;20088;-71
2021/08/14 00:53:45;;;;;;;3.92;2.83;;;19.30;99.90;;;;;;4156241;28;20477;-71
2021/08/14 00:55:45;;;;;;;5.25;3.30;;;19.30;99.90;;;;;;4159631;28;20049;-70
2021/08/14 00:57:47;;;;;;;6.88;2.65;;;19.30;99.90;;;;;;4161156;28;20095;-70
2021/08/14 00:59:49;;;;;;;5.88;2.65;;;19.30;99.90;;;;;;4156355;28;20177;-70
2021/08/14 01:01:50;;;;;;;5.93;2.97;;;19.20;99.90;;;;;;4155663;28;20037;-71
2021/08/14 01:03:55;;;;;;;5.65;3.22;;;19.20;99.90;;;;;;4160978;28;20056;-71
2021/08/14 01:05:56;;;;;;;5.55;2.90;;;19.20;99.90;;;;;;4155569;28;20033;-71
2021/08/14 01:07:57;;;;;;;4.38;2.95;;;19.20;99.90;;;;;;4158643;28;20060;-70
2021/08/14 01:09:58;;;;;;;4.93;2.60;;;19.20;99.90;;;;;;4158249;28;20485;-70
2021/08/14 01:12:01;;;;;;;5.32;2.97;;;19.20;99.90;;;;;;4162132;28;20120;-71
2021/08/14 01:14:02;;;;;;;5.47;2.95;;;19.10;99.90;;;;;;4152153;28;20120;-70
2021/08/14 01:16:05;;;;;;;5.03;3.05;;;19.10;99.90;;;;;;4154585;28;20076;-70
2021/08/14 01:18:06;;;;;;;5.70;3.47;;;19.10;99.90;;;;;;4158632;28;20034;-71
2021/08/14 01:20:07;;;;;;;4.60;3.00;;;19.10;99.90;;;;;;4153704;28;20044;-70
2021/08/14 01:22:13;;;;;;;5.17;3.00;;;19.10;99.90;;;;;;4160426;28;20071;-70
2021/08/14 01:24:14;;;;;;;5.72;3.10;;;19.10;99.90;;;;;;4158520;28;20037;-70
2021/08/14 01:26:15;;;;;;;7.32;3.60;;;19.00;99.90;;;;;;4155350;28;20065;-70
2021/08/14 01:28:16;;;;;;;6.43;3.22;;;19.00;99.90;;;;;;4155788;28;20091;-71
2021/08/14 01:30:16;;;;;;;8.75;3.55;;;19.00;99.90;;;;;;4159554;28;20049;-71
2021/08/14 01:32:17;;;;;;;8.65;3.88;;;19.00;99.90;;;;;;4160088;28;20049;-70
2021/08/14 01:34:20;;;;;;;6.07;3.90;;;18.90;99.90;;;;;;4152859;28;20034;-71
2021/08/14 01:36:21;;;;;;;7.20;3.60;;;18.90;99.90;;;;;;4155984;28;20120;-70
2021/08/14 01:38:22;;;;;;;10.23;3.92;;;18.90;99.90;;;;;;4158526;28;20532;-71
2021/08/14 01:40:22;;;;;;;5.88;3.33;;;18.90;99.90;;;;;;4154882;28;20139;-71
2021/08/14 01:42:23;;;;;;;5.80;4.18;;;18.80;99.90;;;;;;4154921;28;20049;-71
2021/08/14 01:44:25;;;;;;;6.20;4.20;;;18.80;99.90;;;;;;4152215;28;20521;-70
2021/08/14 01:46:28;;;;;;;7.70;4.18;;;18.80;99.90;;;;;;4139315;28;20088;-70
2021/08/14 01:48:29;;;;;;;5.90;4.22;;;18.70;99.90;;;;;;4150031;28;20044;-71
2021/08/14 01:50:29;;;;;;;6.78;3.92;;;18.70;99.90;;;;;;4159863;28;20029;-71
2021/08/14 01:52:30;;;;;;;6.00;3.50;;;18.70;99.90;;;;;;4151771;28;20045;-71
2021/08/14 01:54:31;;;;;;;7.95;4.35;;;18.70;99.90;;;;;;4159111;28;20033;-70
2021/08/14 01:56:32;;;;;;;7.00;3.83;;;18.70;99.90;;;;;;4145189;28;20587;-70
2021/08/14 01:58:33;;;;;;;8.63;4.40;;;18.70;99.90;;;;;;4150903;28;20037;-71
2021/08/14 02:00:34;;;;;;;8.85;4.22;;;18.70;99.90;;;;;;4154946;28;21046;-71
2021/08/14 02:02:35;;;;;;;6.82;4.28;;;18.70;99.90;;;;;;4159712;28;20080;-70
2021/08/14 02:04:36;;;;;;;7.25;4.18;;;18.70;99.90;;;;;;4159109;28;20056;-70
2021/08/14 02:06:37;;;;;;;7.20;4.32;;;18.70;99.90;;;;;;4159740;28;20041;-71
2021/08/14 02:08:38;;;;;;;7.03;4.15;;;18.70;99.90;;;;;;4159757;28;20099;-70
2021/08/14 02:10:38;;;;;;;6.70;4.05;;;18.70;99.90;;;;;;4157395;28;20520;-71
2021/08/14 02:12:39;;;;;;;7.63;4.20;;;18.70;99.90;;;;;;4158109;28;20036;-70
2021/08/14 02:14:39;;;;;;;6.88;4.18;;;18.70;99.90;;;;;;4159631;28;20025;-71
2021/08/14 02:16:40;;;;;;;7.05;4.18;;;18.60;99.90;;;;;;4158882;28;20397;-71
2021/08/14 02:18:41;;;;;;;11.80;4.95;;;18.60;99.90;;;;;;4158027;28;20044;-70
2021/08/14 02:20:41;;;;;;;6.28;4.05;;;18.60;99.90;;;;;;4159435;28;20029;-70
2021/08/14 02:22:42;;;;;;;7.40;3.75;;;18.60;99.90;;;;;;4158854;28;20033;-70
2021/08/14 02:24:42;;;;;;;6.28;4.22;;;18.60;99.90;;;;;;4159718;28;20585;-71
2021/08/14 02:26:43;;;;;;;6.85;4.10;;;18.60;99.90;;;;;;4159507;28;20033;-71
2021/08/14 02:28:44;;;;;;;7.85;4.47;;;18.50;99.90;;;;;;4158897;28;20726;-70
2021/08/14 02:30:44;;;;;;;5.13;3.83;;;18.50;99.90;;;;;;4157756;28;20077;-71
2021/08/14 02:32:47;;;;;;;7.63;4.38;;;18.50;99.90;;;;;;4159338;28;20463;-70
2021/08/14 02:34:47;;;;;;;6.65;3.97;;;18.50;99.90;;;;;;4157405;28;20060;-70
2021/08/14 02:36:48;;;;;;;10.18;4.43;;;18.50;99.90;;;;;;4155418;28;20414;-71
2021/08/14 02:38:48;;;;;;;9.50;4.40;;;18.50;99.90;;;;;;4154303;28;20041;-70
2021/08/14 02:40:49;;;;;;;8.27;4.28;;;18.40;99.90;;;;;;4159127;28;20045;-70
2021/08/14 02:42:50;;;;;;;6.97;4.43;;;18.40;99.90;;;;;;4146494;28;20044;-71
2021/08/14 02:44:51;;;;;;;9.02;4.88;;;18.40;99.90;;;;;;4157426;28;20099;-70
2021/08/14 02:46:51;;;;;;;8.90;5.40;;;18.40;99.90;;;;;;4157291;28;20037;-70
2021/08/14 02:48:52;;;;;;;7.68;4.75;;;18.40;99.90;;;;;;4149825;28;20026;-70
2021/08/14 02:50:52;;;;;;;8.15;4.50;;;18.40;99.90;;;;;;4154623;28;20025;-70
2021/08/14 02:52:53;;;;;;;9.85;5.00;;;18.40;99.90;;;;;;4158736;28;20029;-71
2021/08/14 02:54:54;;;;;;;8.57;4.78;;;18.40;99.90;;;;;;4159341;28;20037;-71
2021/08/14 02:56:54;;;;;;;7.72;4.35;;;18.40;99.90;;;;;;4156969;28;20036;-71
2021/08/14 02:58:55;;;;;;;7.47;4.10;;;18.40;99.90;;;;;;4158851;28;20034;-70
2021/08/14 03:00:56;;;;;;;9.10;4.95;;;18.30;99.90;;;;;;4148903;28;20040;-70
2021/08/14 03:02:57;;;;;;;9.73;5.22;;;18.30;99.90;;;;;;4148949;28;20041;-71
2021/08/14 03:04:57;;;;;;;6.53;4.40;;;18.30;99.90;;;;;;4149277;28;20041;-70
2021/08/14 03:06:58;;;;;;;6.88;4.63;;;18.30;99.90;;;;;;4150682;28;20042;-70
2021/08/14 03:08:58;;;;;;;6.80;4.55;;;18.30;99.90;;;;;;4158597;28;20037;-71
2021/08/14 03:10:59;;;;;;;10.50;4.78;;;18.30;99.90;;;;;;4158875;28;20110;-71
2021/08/14 03:12:59;;;;;;;9.00;4.60;;;18.30;99.90;;;;;;4155470;28;20053;-70
2021/08/14 03:15:00;;;;;;;8.38;4.25;;;18.20;99.90;;;;;;4151929;28;20049;-71
2021/08/14 03:17:01;;;;;;;6.82;4.35;;;18.20;99.90;;;;;;4139311;28;20068;-71
2021/08/14 03:19:01;;;;;;;7.07;4.22;;;18.20;99.90;;;;;;4152429;28;20060;-70
2021/08/14 03:21:02;;;;;;;7.05;4.30;;;18.10;99.90;;;;;;4157102;28;20095;-71
2021/08/14 03:23:03;;;;;;;5.45;4.00;;;18.10;99.90;;;;;;4155521;28;20075;-70
2021/08/14 03:25:04;;;;;;;10.02;4.88;;;18.10;99.90;;;;;;4156955;28;20029;-70
2021/08/14 03:27:06;;;;;;;7.85;4.72;;;18.10;99.90;;;;;;4158564;28;20038;-71
2021/08/14 03:29:06;;;;;;;6.97;4.38;;;18.10;99.90;;;;;;4155543;28;20516;-70
2021/08/14 03:31:07;;;;;;;9.65;4.45;;;18.10;99.90;;;;;;4158482;28;20143;-70
2021/08/14 03:33:07;;;;;;;7.63;4.47;;;18.10;99.90;;;;;;4158731;28;20121;-70
2021/08/14 03:35:09;;;;;;;8.00;4.90;;;18.10;99.90;;;;;;4158119;28;20052;-71
2021/08/14 03:37:09;;;;;;;7.43;4.85;;;18.10;99.90;;;;;;4157805;28;20749;-70
2021/08/14 03:39:10;;;;;;;8.73;5.32;;;18.10;99.90;;;;;;4158686;28;20041;-71
2021/08/14 03:41:11;;;;;;;7.65;4.78;;;18.10;99.90;;;;;;4155955;28;20044;-70
2021/08/14 03:43:11;;;;;;;8.30;4.80;;;18.10;99.90;;;;;;4157364;28;20064;-70
2021/08/14 03:45:12;;;;;;;9.90;4.47;;;18.10;99.90;;;;;;4155837;28;20064;-70
2021/08/14 03:47:12;;;;;;;10.88;4.78;;;18.00;99.90;;;;;;4142193;28;20042;-70
2021/08/14 03:49:15;;;;;;;8.07;4.90;;;17.90;99.90;;;;;;4142346;28;20478;-70
2021/08/14 03:51:15;;;;;;;6.63;4.10;;;17.90;99.90;;;;;;4149161;28;20170;-70
2021/08/14 03:53:16;;;;;;;6.43;4.22;;;17.90;99.90;;;;;;4155923;28;20422;-70
2021/08/14 03:55:16;;;;;;;6.05;4.22;;;17.90;99.90;;;;;;4156226;28;20049;-70
2021/08/14 03:57:17;;;;;;;7.97;4.53;;;17.90;99.90;;;;;;4152246;28;20030;-70
2021/08/14 03:59:18;;;;;;;6.10;4.65;;;17.90;99.90;;;;;;4140036;28;20037;-70
2021/08/14 04:01:18;;;;;;;14.77;5.10;;;17.90;99.90;;;;;;4156252;28;20404;-70
2021/08/14 04:03:19;;;;;;;8.55;4.90;;;17.90;99.90;;;;;;4143794;28;20536;-70
2021/08/14 04:05:19;;;;;;;7.72;4.97;;;17.90;99.90;;;;;;4141609;28;20044;-70
2021/08/14 04:07:20;;;;;;;8.68;5.28;;;17.90;99.90;;;;;;4141730;28;20034;-70
2021/08/14 04:09:20;;;;;;;6.82;4.82;;;17.90;99.90;;;;;;4156106;28;20389;-70
2021/08/14 04:11:21;;;;;;;8.27;5.10;;;17.90;99.90;;;;;;4154203;28;20041;-70
2021/08/14 04:13:22;;;;;;;7.38;4.63;;;17.80;99.90;;;;;;4157334;28;20051;-70
2021/08/14 04:15:22;;;;;;;5.97;4.30;;;17.80;99.90;;;;;;4154665;28;20030;-70
2021/08/14 04:17:23;;;;;;;7.63;4.90;;;17.90;99.90;;;;;;4150302;28;20079;-70
2021/08/14 04:19:23;;;;;;;11.55;5.28;;;17.80;99.90;;;;;;4159467;28;20110;-70
2021/08/14 04:21:24;;;;;;;9.25;5.72;;;17.80;99.90;;;;;;4161464;28;20060;-70
2021/08/14 04:23:24;;;;;;;12.80;5.53;;;17.80;99.90;;;;;;4160799;28;20075;-70
2021/08/14 04:25:25;;;;;;;8.48;5.63;;;17.80;99.90;;;;;;4158965;28;20038;-70
2021/08/14 04:27:26;;;;;;;10.30;5.40;;;17.70;99.90;;;;;;4157374;28;20033;-70
2021/08/14 04:29:28;;;;;;;14.23;5.55;;;17.70;99.90;;;;;;4160336;28;20060;-70
2021/08/14 04:31:29;;;;;;;7.82;5.53;;;17.70;99.90;;;;;;4160786;28;20033;-70
2021/08/14 04:33:29;;;;;;;8.35;5.70;;;17.70;99.90;;;;;;4160560;28;20045;-70
2021/08/14 04:35:30;;;;;;;8.85;6.03;;;17.70;99.90;;;;;;4158954;28;20034;-70
2021/08/14 04:37:31;;;;;;;7.90;5.40;;;17.70;99.90;;;;;;4153872;28;20095;-70
2021/08/14 04:39:31;;;;;;;9.77;5.70;;;17.70;99.90;;;;;;4153141;28;20033;-70
2021/08/14 04:41:32;;;;;;;8.35;6.40;;;17.70;99.90;;;;;;4141589;28;20557;-70
2021/08/14 04:43:32;;;;;;;9.27;6.10;;;17.70;99.90;;;;;;4176972;28;20459;-70
2021/08/14 04:45:33;;;;;;;9.57;5.63;;;17.70;99.90;;;;;;4160457;28;20470;-70
2021/08/14 04:47:33;;;;;;;8.95;5.68;;;17.70;99.90;;;;;;4161303;28;20116;-71
2021/08/14 04:49:34;;;;;;;10.40;6.00;;;17.70;99.90;;;;;;4157850;28;20152;-70
2021/08/14 04:51:35;;;;;;;10.15;5.53;;;17.70;99.90;;;;;;4153953;28;20036;-71
2021/08/14 04:53:35;;;;;;;11.32;5.72;;;17.70;99.90;;;;;;4161849;28;20486;-70
2021/08/14 04:55:36;;;;;;;8.80;5.57;;;17.70;99.90;;;;;;4160568;28;20044;-70
2021/08/14 04:57:37;;;;;;;8.23;5.63;;;17.70;99.90;;;;;;4157399;28;20029;-70
2021/08/14 04:59:38;;;;;;;9.10;6.13;;;17.70;99.90;;;;;;4158348;28;20021;-70
2021/08/14 05:01:38;;;;;;;9.20;5.65;;;17.70;99.90;;;;;;4159326;28;20092;-70
2021/08/14 05:03:39;;;;;;;9.10;5.63;;;17.70;99.90;;;;;;4155304;28;20058;-70
2021/08/14 05:05:40;;;;;;;11.32;6.43;;;17.70;99.90;;;;;;4144071;28;20382;-70
2021/08/14 05:07:40;;;;;;;11.68;6.45;;;17.70;99.90;;;;;;4159981;28;20040;-70
2021/08/14 05:09:43;;;;;;;13.23;6.35;;;17.70;99.90;;;;;;4146671;28;20026;-71
2021/08/14 05:11:43;;;;;;;8.18;5.38;;;17.70;99.90;;;;;;4149486;28;20029;-70
2021/08/14 05:13:44;;;;;;;9.05;5.57;;;17.70;99.90;;;;;;4154128;28;20037;-70
2021/08/14 05:15:45;;;;;;;12.07;6.05;;;17.80;99.90;;;;;;4153286;28;20553;-71
2021/08/14 05:17:45;;;;;;;8.10;5.75;;;17.80;99.90;;;;;;4152762;28;20033;-71
2021/08/14 05:19:46;;;;;;;10.85;6.47;;;17.80;99.90;;;;;;4160582;28;20038;-70
2021/08/14 05:21:47;;;;;;;11.88;6.38;;;17.80;99.90;;;;;;4160855;28;20522;-70
2021/08/14 05:23:47;;;;;;;12.38;5.82;;;17.80;99.90;;;;;;4150645;28;20042;-70
2021/08/14 05:25:48;;;;;;;9.40;5.88;;;17.80;99.90;;;;;;4159060;28;20037;-70
2021/08/14 05:27:48;;;;;;;10.30;6.28;;;17.80;99.90;;;;;;4159618;28;20033;-70
2021/08/14 05:29:49;;;;;;;9.48;5.13;;;17.80;99.90;;;;;;4158747;28;20095;-70
2021/08/14 05:31:49;;;;;;;8.90;5.93;;;17.80;99.90;;;;;;4144775;28;20025;-70
2021/08/14 05:33:50;;;;;;;10.18;6.13;;;17.90;99.90;;;;;;4151965;28;20030;-71
2021/08/14 05:35:51;;;;;;;8.60;5.00;;;17.90;99.90;;;;;;4151716;28;20033;-70
2021/08/14 05:37:51;;;;;;;12.50;6.07;;;17.90;99.90;;;;;;4159976;28;20045;-71
2021/08/14 05:39:52;;;;;;;7.78;5.35;;;17.90;99.90;;;;;;4149970;28;20038;-70
2021/08/14 05:41:52;;;;;;;15.35;5.60;;;17.90;99.90;;;;;;4151895;28;21023;-70
2021/08/14 05:43:53;;;;;;;7.10;4.47;;;17.90;99.90;;;;;;4144867;28;20470;-71
2021/08/14 05:45:53;;;;;;;8.63;5.00;;;18.00;99.90;;;;;;4155694;28;20037;-71
2021/08/14 05:47:54;;;;;;;8.68;5.03;;;17.90;99.90;;;;;;4160077;28;20037;-70
2021/08/14 05:49:55;;;;;;;11.20;5.88;;;18.00;99.90;;;;;;4160090;28;20110;-71
2021/08/14 05:51:57;;;;;;;11.10;5.15;;;18.00;99.90;;;;;;4164280;28;20049;-70
2021/08/14 05:53:58;;;;;;;10.60;5.47;;;18.00;99.90;;;;;;4154262;28;20486;-70
2021/08/14 05:55:58;;;;;;;11.38;5.72;;;18.00;99.90;;;;;;4165973;28;20041;-71
2021/08/14 05:57:59;;;;;;;8.98;5.28;;;18.00;99.90;;;;;;4153735;28;20042;-70
2021/08/14 06:00:00;;;;;;;8.93;4.95;;;18.10;99.90;;;;;;4154811;28;20136;-70
2021/08/14 06:02:00;;;;;;;12.52;5.13;;;18.00;99.90;;;;;;4161833;28;20091;-70
2021/08/14 06:04:01;;;;;;;9.70;4.40;;;18.10;99.90;;;;;;4166432;28;20124;-70
2021/08/14 06:06:03;;;;;;;8.43;4.93;;;18.10;99.90;;;;;;4160230;28;20507;-70
2021/08/14 06:08:04;;;;;;;11.50;5.43;;;18.10;99.90;;;;;;4158367;28;20041;-71
2021/08/14 06:10:06;;;;;;;10.55;5.28;;;18.10;99.90;;;;;;4159562;28;20508;-70
2021/08/14 06:12:10;;;;;;;9.90;5.00;;;18.10;99.90;;;;;;4157679;28;20378;-70
2021/08/14 06:14:10;;;;;;;7.80;4.75;;;18.20;99.90;;;;;;4157441;28;20511;-70
2021/08/14 06:16:12;;;;;;;10.43;4.55;;;18.20;99.90;;;;;;4160800;28;20034;-70
2021/08/14 06:18:13;;;;;;;11.57;4.72;;;18.20;99.90;;;;;;4148841;28;20520;-71
2021/08/14 06:20:14;;;;;;;9.60;5.03;;;18.30;99.90;;;;;;4156132;28;20046;-71
2021/08/14 06:22:15;;;;;;;11.00;5.15;;;18.30;99.90;;;;;;4159423;28;20034;-70
2021/08/14 06:24:16;;;;;;;11.02;5.07;;;18.20;99.90;;;;;;4153572;28;20103;-70
2021/08/14 06:26:16;;;;;;;10.85;5.10;;;18.20;99.90;;;;;;4164107;28;20064;-70
2021/08/14 06:28:17;;;;;;;10.52;5.00;;;18.30;99.90;;;;;;4163089;28;20046;-70
2021/08/14 06:30:18;;;;;;;8.07;4.72;;;18.30;99.90;;;;;;4158624;28;20108;-71
2021/08/14 06:32:18;;;;;;;12.63;5.30;;;18.20;99.90;;;;;;4150944;28;20050;-70
2021/08/14 06:34:19;;;;;;;10.82;5.25;;;18.20;99.90;;;;;;4139763;28;20040;-70
2021/08/14 06:36:20;;;;;;;13.75;5.20;;;18.20;99.90;;;;;;4152193;28;20045;-70
2021/08/14 06:38:21;;;;;;;13.50;5.43;;;18.20;99.90;;;;;;4144664;28;20542;-71
2021/08/14 06:40:21;;;;;;;8.90;4.25;;;18.20;99.90;;;;;;4150377;28;20045;-70
2021/08/14 06:42:22;;;;;;;9.68;4.20;;;18.30;99.90;;;;;;4152180;28;20030;-71
2021/08/14 06:44:22;;;;;;;11.43;4.80;;;18.30;99.90;;;;;;4158741;28;20033;-71
2021/08/14 06:46:23;;;;;;;10.13;4.57;;;18.30;99.90;;;;;;4162371;28;20037;-70
2021/08/14 06:48:24;;;;;;;10.45;3.78;;;18.40;99.90;;;;;;4165222;28;20056;-71
2021/08/14 06:50:24;;;;;;;13.05;4.95;;;18.40;99.90;;;;;;4158401;28;20068;-71
2021/08/14 06:52:25;;;;;;;13.27;4.65;;;18.40;99.90;;;;;;4157031;28;20112;-70
2021/08/14 06:54:26;;;;;;;8.18;4.05;;;18.40;99.90;;;;;;4163197;28;20045;-70
2021/08/14 06:56:26;;;;;;;10.65;4.00;;;18.50;99.90;;;;;;4154793;28;20042;-70
2021/08/14 06:58:27;;;;;;;6.93;3.55;;;18.50;99.90;;;;;;4152338;28;20099;-71
2021/08/14 07:00:28;;;;;;;9.25;4.43;;;18.50;99.90;;;;;;4155765;28;20531;-71
2021/08/14 07:02:29;;;;;;;8.25;3.92;;;18.60;99.90;;;;;;4155601;28;20034;-70
2021/08/14 07:04:29;;;;;;;13.70;5.00;;;18.60;99.90;;;;;;4148203;28;20054;-71
2021/08/14 07:06:30;;;;;;;11.60;4.97;;;18.70;99.90;;;;;;4161173;28;20037;-71
2021/08/14 07:08:31;;;;;;;10.27;3.95;;;18.70;99.90;;;;;;4143109;28;20033;-71
2021/08/14 07:10:31;;;;;;;12.15;5.13;;;18.80;99.90;;;;;;4163992;28;20029;-69
2021/08/14 07:12:32;;;;;;;13.88;5.15;;;18.80;99.90;;;;;;4151666;28;20485;-70
2021/08/14 07:14:33;;;;;;;11.68;4.13;;;18.80;99.90;;;;;;4154732;28;20037;-70
2021/08/14 07:16:33;;;;;;;14.32;4.60;;;18.80;99.90;;;;;;4136494;28;20089;-70
2021/08/14 07:18:34;;;;;;;10.55;4.13;;;18.90;99.90;;;;;;4142835;28;20046;-70
2021/08/14 07:20:35;;;;;;;10.93;4.63;;;18.90;99.90;;;;;;4142400;28;20048;-70
2021/08/14 07:22:35;;;;;;;9.05;3.75;;;18.90;99.90;;;;;;4145834;28;20070;-70
2021/08/14 07:24:36;;;;;;;17.73;3.90;;;19.00;99.90;;;;;;4155982;28;20064;-70
2021/08/14 07:26:36;;;;;;;10.68;3.92;;;19.00;99.90;;;;;;4155667;28;20050;-70
2021/08/14 07:28:37;;;;;;;8.48;3.50;;;19.10;99.90;;;;;;4156046;28;20026;-70
2021/08/14 07:30:37;;;;;;;11.05;3.35;;;19.10;99.90;;;;;;4160837;28;20071;-70
2021/08/14 07:32:38;;;;;;;7.72;3.25;;;19.20;99.90;;;;;;4142327;28;20108;-70
2021/08/14 07:34:40;;;;;;;7.70;3.05;;;19.20;99.90;;;;;;4159029;28;20041;-70
2021/08/14 07:36:41;;;;;;;7.95;3.45;;;19.20;99.90;;;;;;4154604;28;20054;-70
2021/08/14 07:38:41;;;;;;;8.90;3.70;;;19.30;99.90;;;;;;4151911;28;20437;-70
2021/08/14 07:40:42;;;;;;;7.90;4.03;;;19.30;99.90;;;;;;4155961;28;20076;-73
2021/08/14 07:42:43;;;;;;;8.10;3.65;;;19.40;99.90;;;;;;4148929;28;20038;-73
2021/08/14 07:44:43;;;;;;;6.65;3.08;;;19.40;99.90;;;;;;4153953;28;20047;-74
2021/08/14 07:46:44;;;;;;;8.20;3.42;;;19.40;99.90;;;;;;4157967;28;20060;-74
2021/08/14 07:48:44;;;;;;;7.22;3.20;;;19.40;99.90;;;;;;4152566;28;20567;-74
2021/08/14 07:50:45;;;;;;;9.02;3.15;;;19.50;99.90;;;;;;4155655;28;20420;-74
2021/08/14 07:52:46;;;;;;;8.93;2.83;;;19.50;99.90;;;;;;4158275;28;20148;-73
2021/08/14 07:54:47;;;;;;;9.48;3.78;;;19.60;99.90;;;;;;4157301;28;20046;-74
2021/08/14 07:56:47;;;;;;;9.48;2.92;;;19.60;99.90;;;;;;4150128;28;20072;-74
2021/08/14 07:58:48;;;;;;;10.18;3.13;;;19.60;99.90;;;;;;4150177;28;20041;-74
2021/08/14 08:00:49;;;;;;;9.70;3.22;;;19.70;99.90;;;;;;4154400;28;20040;-74
2021/08/14 08:02:50;;;;;;;9.80;3.70;;;19.70;99.90;;;;;;4155535;28;20068;-74
2021/08/14 08:04:50;;;;;;;10.27;3.33;;;19.70;99.90;;;;;;4154468;28;20026;-74
2021/08/14 08:06:51;;;;;;;9.48;2.70;;;19.80;99.90;;;;;;4159342;28;20041;-74
2021/08/14 08:08:51;;;;;;;9.32;2.50;;;19.80;99.90;;;;;;4156379;28;20130;-74
2021/08/14 08:10:52;;;;;;;7.35;2.78;;;19.90;99.90;;;;;;4159488;28;20041;-73
2021/08/14 08:12:53;;;;;;;6.97;2.63;;;20.00;99.90;;;;;;4156964;28;20034;-73
2021/08/14 08:14:53;;;;;;;5.57;2.78;;;20.00;99.90;;;;;;4151518;28;20654;-73
2021/08/14 08:16:54;;;;;;;6.97;2.97;;;20.10;99.90;;;;;;4160432;28;21443;-73
2021/08/14 08:18:54;;;;;;;5.03;2.55;;;20.10;99.90;;;;;;4158865;28;20049;-74
2021/08/14 08:20:55;;;;;;;6.43;2.55;;;20.20;99.90;;;;;;4156790;28;20061;-74
2021/08/14 08:22:55;;;;;;;5.30;2.42;;;20.20;99.90;;;;;;4154816;28;20532;-74
2021/08/14 08:24:56;;;;;;;6.90;3.13;;;20.30;99.90;;;;;;4147907;28;20060;-74
2021/08/14 08:26:57;;;;;;;7.90;2.95;;;20.40;99.90;;;;;;4153539;28;20041;-74
2021/08/14 08:28:58;;;;;;;8.55;2.95;;;20.40;99.90;;;;;;4156104;28;20566;-73
2021/08/14 08:30:58;;;;;;;6.15;2.65;;;20.50;99.90;;;;;;4156716;28;21427;-74
2021/08/14 08:32:59;;;;;;;6.75;3.00;;;20.60;99.90;;;;;;4125445;28;20038;-74
2021/08/14 08:34:59;;;;;;;6.93;2.80;;;20.70;99.90;;;;;;4137887;28;20046;-73
2021/08/14 08:37:00;;;;;;;6.40;3.00;;;20.80;99.90;;;;;;4139651;28;20046;-73
2021/08/14 08:39:01;;;;;;;5.57;2.35;;;20.80;99.90;;;;;;4154608;28;20116;-74
2021/08/14 08:41:01;;;;;;;8.35;2.65;;;20.90;99.90;;;;;;4152057;28;20038;-74
2021/08/14 08:43:02;;;;;;;6.70;2.65;;;21.00;99.90;;;;;;4137779;28;20046;-73
2021/08/14 08:45:04;;;;;;;8.50;2.65;;;21.10;99.90;;;;;;4149344;28;20427;-74
2021/08/14 08:47:07;;;;;;;10.60;3.10;;;21.10;99.90;;;;;;4140591;28;20050;-73
2021/08/14 08:49:09;;;;;;;6.30;2.17;;;21.30;99.90;;;;;;4156046;28;20117;-74
2021/08/14 08:51:11;;;;;;;6.35;2.47;;;21.30;99.90;;;;;;4151892;28;20057;-74
2021/08/14 08:53:11;;;;;;;4.73;2.40;;;21.30;99.90;;;;;;4141178;28;20054;-74
2021/08/14 08:55:13;;;;;;;8.40;2.60;;;21.40;99.90;;;;;;4139455;28;20347;-73
2021/08/14 08:57:14;;;;;;;7.28;2.85;;;21.50;99.90;;;;;;4144959;28;20485;-74
2021/08/14 08:59:14;;;;;;;7.68;2.55;;;21.60;99.90;;;;;;4154285;28;20065;-74
2021/08/14 09:01:15;;;;;;;4.80;2.35;;;21.70;99.90;;;;;;4157051;28;20131;-73
2021/08/14 09:03:16;;;;;;;6.57;2.30;;;21.70;99.90;;;;;;4155207;28;20042;-73
2021/08/14 09:05:19;;;;;;;4.75;2.10;;;21.80;99.90;;;;;;4148218;28;20048;-73
2021/08/14 09:07:27;;;;;;;5.32;2.15;;;22.00;99.90;;;;;;4148302;28;20065;-73
2021/08/14 09:09:30;;;;;;;5.50;2.40;;;22.10;99.90;;;;;;4148631;28;20091;-74
2021/08/14 09:11:30;;;;;;;;;;;22.20;99.90;;;;;;4148549;28;20095;-74
2021/08/14 09:13:31;;;;;;;5.18;2.50;;;22.30;99.90;;;;;;4152110;28;20000;-73
2021/08/14 09:15:32;;;;;;;8.50;2.30;;;22.40;99.90;;;;;;4150825;28;20113;-74
2021/08/14 09:17:33;;;;;;;5.85;2.42;;;22.50;99.90;;;;;;4152861;28;20642;-73
2021/08/14 09:19:35;;;;;;;8.13;2.28;;;22.50;99.90;;;;;;4142036;28;20040;-74
2021/08/14 09:21:37;;;;;;;6.83;1.90;;;22.60;99.90;;;;;;4149487;28;20038;-74
2021/08/14 09:23:40;;;;;;;5.57;2.42;;;22.70;99.90;;;;;;4149090;28;20050;-74
2021/08/14 09:25:50;;;;;;;6.82;2.40;;;22.80;99.90;;;;;;4150740;28;20041;-73
2021/08/14 09:27:53;;;;;;;5.15;1.75;;;22.90;99.70;;;;;;4170782;28;20036;-73
2021/08/14 09:29:54;;;;;;;4.85;1.95;;;23.00;99.90;;;;;;4149785;28;20037;-73
2021/08/14 09:31:55;;;;;;;6.07;2.40;;;23.10;99.90;;;;;;4155398;28;20038;-74
2021/08/14 09:34:14;;;;;;;4.43;1.98;;;23.20;99.00;;;;;;4156169;28;20044;-73
2021/08/14 09:36:17;;;;;;;9.15;2.95;;;23.30;99.00;;;;;;4155619;28;20088;-73
2021/08/14 09:38:17;;;;;;;4.20;2.30;;;23.30;98.90;;;;;;4153965;28;20052;-74
2021/08/14 09:40:33;;;;;;;4.22;2.28;;;23.40;99.90;;;;;;4140582;28;20706;-74
2021/08/14 09:42:49;;;;;;;5.00;2.47;;;23.40;99.90;;;;;;4155804;28;20502;-74
2021/08/14 09:45:12;;;;;;;5.75;2.22;;;23.60;98.80;;;;;;4134506;28;20037;-74
2021/08/14 09:47:35;;;;;;;8.10;2.75;;;23.60;98.40;;;;;;4137043;28;20042;-73
2021/08/14 09:49:54;;;;;;;6.90;2.30;;;23.60;98.20;;;;;;4136592;28;20050;-74
2021/08/14 09:52:00;;;;;;;4.40;1.92;;;23.70;98.60;;;;;;4147460;28;20057;-74
2021/08/14 09:54:02;;;;;;;4.90;2.10;;;23.70;96.30;;;;;;4143157;28;20141;-74
2021/08/14 09:56:04;;;;;;;4.85;2.28;;;23.80;97.40;;;;;;4141816;28;20099;-74
2021/08/14 09:58:06;;;;;;;6.25;2.20;;;23.80;96.40;;;;;;4148525;28;20037;-73
2021/08/14 10:00:08;;;;;;;5.57;2.30;;;23.90;98.60;;;;;;4142706;28;20094;-74
2021/08/14 10:02:13;;;;;;;3.92;1.80;;;24.00;97.40;;;;;;4149135;28;20043;-74
2021/08/14 10:04:17;;;;;;;3.55;1.70;;;24.10;99.90;;;;;;4146287;28;20508;-74
2021/08/14 10:06:19;;;;;;;5.05;2.20;;;24.20;95.60;;;;;;4144883;28;20053;-74
2021/08/14 10:08:19;;;;;;;4.18;2.08;;;24.30;94.90;;;;;;4116207;28;20467;-74
2021/08/14 10:10:22;;;;;;;4.15;2.03;;;24.40;94.70;;;;;;4136329;28;20046;-73
2021/08/14 10:12:22;;;;;;;6.43;2.47;;;24.40;96.30;;;;;;4136276;28;20038;-73
2021/08/14 10:14:24;;;;;;;4.57;1.90;;;24.40;94.30;;;;;;4137311;28;20034;-73
2021/08/14 10:16:25;;;;;;;6.38;2.55;;;24.50;94.70;;;;;;4137040;28;20684;-73
2021/08/14 10:18:27;;;;;;;10.10;2.17;;;24.50;93.70;;;;;;4134937;28;20116;-73
2021/08/14 10:20:27;;;;;;;5.65;2.40;;;24.50;94.70;;;;;;4136141;28;20057;-73
2021/08/14 10:22:28;;;;;;;5.97;2.72;;;24.50;94.40;;;;;;4137938;28;20037;-73
2021/08/14 10:24:41;;;;;;;3.47;1.92;;;24.60;93.60;;;;;;4136064;28;20062;-73
2021/08/14 10:26:41;;;;;;;5.47;2.72;;;24.70;94.40;;;;;;4154615;28;20052;-74
2021/08/14 10:28:45;;;;;;;6.03;2.55;;;24.70;94.30;;;;;;4149185;28;20051;-73
2021/08/14 10:30:46;;;;;;;5.45;2.28;;;24.70;93.50;;;;;;4150784;28;20899;-73